createdAt,value
2018-10-12T00:00:01.653Z,18.40
2018-10-12T00:02:30.271Z,18.73
2018-10-12T00:04:58.765Z,17.23
2018-10-12T00:07:27.269Z,17.20
2018-10-12T00:09:55.778Z,17.40
2018-10-12T00:12:24.306Z,16.83
2018-10-12T00:14:52.860Z,17.00
2018-10-12T00:17:21.374Z,17.70
2018-10-12T00:19:49.888Z,17.23
2018-10-12T00:22:18.399Z,17.87
2018-10-12T00:24:46.937Z,15.70
2018-10-12T00:27:15.448Z,16.10
2018-10-12T00:29:43.970Z,15.97
2018-10-12T00:32:12.750Z,15.97
2018-10-12T00:34:41.270Z,16.10
2018-10-12T00:37:09.833Z,17.17
2018-10-12T00:39:38.378Z,16.30
2018-10-12T00:42:06.931Z,16.10
2018-10-12T00:44:39.222Z,15.77
2018-10-12T00:47:07.750Z,15.60
2018-10-12T00:49:36.257Z,14.70
2018-10-12T00:52:04.749Z,15.17
2018-10-12T00:54:33.364Z,17.17
2018-10-12T00:57:01.899Z,14.97
2018-10-12T00:59:30.433Z,15.43
2018-10-12T01:01:58.969Z,15.47
2018-10-12T01:04:27.479Z,14.87
2018-10-12T01:06:56.001Z,15.30
2018-10-12T01:09:24.478Z,15.37
2018-10-12T01:12:02.923Z,16.43
2018-10-12T01:14:31.571Z,16.60
2018-10-12T01:17:00.118Z,15.50
2018-10-12T01:19:28.721Z,14.97
2018-10-12T01:21:57.307Z,16.03
2018-10-12T01:24:26.039Z,15.77
2018-10-12T01:26:54.610Z,14.70
2018-10-12T01:29:23.117Z,15.90
2018-10-12T01:31:51.641Z,15.37
2018-10-12T01:34:20.161Z,14.07
2018-10-12T01:36:48.678Z,14.60
2018-10-12T01:39:17.138Z,13.47
2018-10-12T01:41:45.659Z,15.43
2018-10-12T01:44:14.144Z,14.70
2018-10-12T01:46:42.679Z,15.17
2018-10-12T01:49:11.155Z,15.97
2018-10-12T01:51:39.683Z,13.47
2018-10-12T01:54:08.200Z,13.90
2018-10-12T01:56:37.731Z,14.30
2018-10-12T01:59:06.246Z,13.37
2018-10-12T02:01:34.903Z,13.33
2018-10-12T02:04:03.434Z,15.13
2018-10-12T02:06:31.913Z,12.57
2018-10-12T02:09:00.379Z,12.10
2018-10-12T02:11:28.928Z,13.37
2018-10-12T02:13:57.407Z,12.90
2018-10-12T02:16:25.944Z,13.17
2018-10-12T02:18:54.477Z,11.67
2018-10-12T02:21:22.987Z,12.73
2018-10-12T02:23:51.501Z,11.97
2018-10-12T02:26:19.986Z,13.57
2018-10-12T02:28:48.510Z,13.27
2018-10-12T02:31:16.998Z,14.20
2018-10-12T02:33:45.477Z,12.67
2018-10-12T02:36:14.010Z,13.73
2018-10-12T02:38:42.506Z,12.00
2018-10-12T02:41:11.073Z,13.53
2018-10-12T02:43:39.586Z,13.17
2018-10-12T02:46:08.084Z,13.83
2018-10-12T02:48:36.622Z,14.30
2018-10-12T02:51:05.775Z,13.00
2018-10-12T02:53:34.356Z,11.90
2018-10-12T02:56:02.877Z,12.83
2018-10-12T02:58:31.418Z,14.37
2018-10-12T03:00:59.923Z,12.60
2018-10-12T03:03:28.463Z,13.07
2018-10-12T03:05:56.968Z,12.60
2018-10-12T03:08:25.489Z,13.07
2018-10-12T03:10:53.999Z,11.77
2018-10-12T03:13:22.497Z,11.13
2018-10-12T03:15:51.274Z,12.03
2018-10-12T03:18:19.817Z,11.67
2018-10-12T03:20:48.317Z,12.67
2018-10-12T03:23:16.825Z,12.73
2018-10-12T03:25:45.373Z,11.50
2018-10-12T03:28:24.527Z,10.87
2018-10-12T03:30:53.120Z,10.80
2018-10-12T03:33:21.730Z,11.23
2018-10-12T03:35:50.322Z,11.13
2018-10-12T03:38:18.825Z,11.77
2018-10-12T03:40:47.376Z,12.10
2018-10-12T03:43:15.961Z,12.53
2018-10-12T03:45:44.681Z,11.40
2018-10-12T03:48:13.227Z,11.60
2018-10-12T03:50:41.772Z,12.40
2018-10-12T03:53:10.934Z,12.93
2018-10-12T03:55:39.818Z,12.03
2018-10-12T03:58:08.446Z,13.40
2018-10-12T04:00:37.168Z,11.47
2018-10-12T04:03:05.703Z,11.53
2018-10-12T04:05:34.493Z,11.67
2018-10-12T04:08:03.027Z,11.27
2018-10-12T04:10:31.536Z,11.90
2018-10-12T04:13:00.081Z,11.83
2018-10-12T04:15:28.671Z,11.60
2018-10-12T04:17:57.218Z,11.97
2018-10-12T04:20:25.700Z,11.93
2018-10-12T04:22:54.202Z,12.83
2018-10-12T04:25:22.694Z,13.17
2018-10-12T04:27:51.154Z,12.67
2018-10-12T04:30:19.589Z,13.63
2018-10-12T04:32:48.083Z,13.07
2018-10-12T04:35:16.514Z,12.90
2018-10-12T04:37:45.033Z,12.33
2018-10-12T04:41:19.757Z,11.67
2018-10-12T04:43:49.825Z,11.10
2018-10-12T04:46:23.156Z,11.60
2018-10-12T04:48:52.147Z,11.73
2018-10-12T04:51:22.958Z,12.53
2018-10-12T04:53:51.595Z,11.57
2018-10-12T04:56:20.914Z,11.60
2018-10-12T04:58:50.065Z,11.80
2018-10-12T05:01:18.556Z,11.20
2018-10-12T05:03:47.003Z,11.03
2018-10-12T05:06:15.574Z,12.27
2018-10-12T05:08:44.150Z,11.83
2018-10-12T05:11:12.959Z,12.47
2018-10-12T05:13:41.445Z,12.10
2018-10-12T05:16:09.999Z,12.37
2018-10-12T05:18:38.562Z,11.90
2018-10-12T05:21:07.152Z,12.40
2018-10-12T05:23:35.756Z,12.70
2018-10-12T05:26:04.292Z,11.50
2018-10-12T05:28:34.430Z,12.10
2018-10-12T05:31:02.951Z,11.40
2018-10-12T05:33:31.498Z,12.03
2018-10-12T05:36:00.033Z,13.80
2018-10-12T05:38:35.207Z,11.50
2018-10-12T05:41:03.799Z,12.47
2018-10-12T05:43:32.629Z,11.70
2018-10-12T05:46:01.047Z,11.60
2018-10-12T05:48:40.952Z,12.27
2018-10-12T05:51:10.537Z,12.03
2018-10-12T05:53:39.138Z,12.40
2018-10-12T05:56:08.385Z,12.70
2018-10-12T05:58:37.106Z,10.90
2018-10-12T06:01:05.700Z,11.47
2018-10-12T06:03:34.289Z,12.47
2018-10-12T06:06:02.851Z,11.43
2018-10-12T06:08:31.518Z,11.17
2018-10-12T06:11:00.069Z,11.10
2018-10-12T06:13:28.631Z,11.00
2018-10-12T06:15:57.291Z,11.13
2018-10-12T06:18:26.079Z,10.73
2018-10-12T06:20:54.717Z,10.17
2018-10-12T06:23:23.341Z,11.00
2018-10-12T06:25:51.892Z,10.00
2018-10-12T06:28:20.407Z,9.10
2018-10-12T06:30:48.929Z,9.30
2018-10-12T06:33:17.731Z,8.50
2018-10-12T06:35:46.547Z,9.53
2018-10-12T06:38:15.163Z,9.30
2018-10-12T06:40:43.820Z,8.40
2018-10-12T06:43:12.629Z,10.27
2018-10-12T06:45:41.202Z,9.47
2018-10-12T06:48:09.887Z,9.77
2018-10-12T06:50:38.773Z,9.50
2018-10-12T06:53:07.664Z,10.07
2018-10-12T06:55:36.157Z,9.50
2018-10-12T06:58:04.671Z,9.03
2018-10-12T07:00:33.214Z,9.30
2018-10-12T07:03:01.926Z,10.57
2018-10-12T07:05:30.632Z,9.40
2018-10-12T07:07:59.236Z,8.97
2018-10-12T07:10:27.811Z,9.50
2018-10-12T07:12:56.417Z,10.60
2018-10-12T07:15:25.174Z,9.90
2018-10-12T07:17:53.727Z,10.03
2018-10-12T07:20:22.295Z,9.10
2018-10-12T07:22:50.912Z,9.57
2018-10-12T07:25:19.486Z,8.40
2018-10-12T07:27:48.068Z,9.50
2018-10-12T07:30:16.622Z,8.57
2018-10-12T07:32:45.233Z,9.37
2018-10-12T07:35:13.786Z,7.83
2018-10-12T07:37:42.386Z,9.70
2018-10-12T07:40:10.849Z,9.20
2018-10-12T07:42:39.434Z,9.20
2018-10-12T07:45:08.381Z,9.90
2018-10-12T07:47:36.922Z,8.57
2018-10-12T07:50:07.349Z,7.87
2018-10-12T07:52:36.027Z,9.70
2018-10-12T07:55:04.662Z,8.20
2018-10-12T07:57:33.640Z,9.07
2018-10-12T08:00:02.388Z,9.47
2018-10-12T08:02:30.885Z,8.53
2018-10-12T08:04:59.442Z,9.50
2018-10-12T08:07:27.976Z,7.90
2018-10-12T08:09:56.494Z,7.77
2018-10-12T08:12:25.138Z,7.90
2018-10-12T08:14:53.664Z,9.13
2018-10-12T08:17:22.258Z,8.97
2018-10-12T08:19:50.904Z,8.10
2018-10-12T08:22:19.468Z,7.70
2018-10-12T08:24:48.099Z,7.97
2018-10-12T08:27:16.613Z,8.60
2018-10-12T08:29:45.208Z,7.90
2018-10-12T08:32:13.935Z,7.47
2018-10-12T08:34:42.530Z,7.33
2018-10-12T08:37:11.192Z,8.07
2018-10-12T08:39:39.735Z,6.80
2018-10-12T08:42:08.452Z,6.90
2018-10-12T08:44:36.934Z,7.70
2018-10-12T08:47:05.511Z,6.97
2018-10-12T08:49:34.165Z,7.13
2018-10-12T08:52:02.679Z,7.13
2018-10-12T08:54:31.273Z,7.20
2018-10-12T08:56:59.784Z,7.37
2018-10-12T08:59:28.260Z,6.47
2018-10-12T09:01:57.053Z,6.77
2018-10-12T09:04:25.575Z,6.57
2018-10-12T09:07:00.554Z,6.83
2018-10-12T09:09:29.131Z,6.13
2018-10-12T09:11:57.631Z,6.10
2018-10-12T09:14:26.113Z,6.37
2018-10-12T09:16:54.635Z,6.73
2018-10-12T09:19:23.171Z,7.00
2018-10-12T09:21:51.775Z,5.90
2018-10-12T09:24:20.261Z,7.40
2018-10-12T09:26:48.823Z,7.00
2018-10-12T09:29:17.387Z,7.20
2018-10-12T09:31:45.930Z,5.90
2018-10-12T09:34:14.414Z,6.20
2018-10-12T09:36:43.043Z,6.93
2018-10-12T09:39:11.448Z,6.50
2018-10-12T09:41:39.927Z,6.60
2018-10-12T09:44:08.604Z,6.73
2018-10-12T09:46:37.302Z,6.30
2018-10-12T09:49:05.829Z,6.13
2018-10-12T09:51:34.361Z,6.73
2018-10-12T09:54:02.868Z,5.97
2018-10-12T09:56:31.370Z,5.40
2018-10-12T09:58:59.947Z,4.97
2018-10-12T10:01:33.843Z,5.60
2018-10-12T10:04:07.819Z,5.10
2018-10-12T10:06:36.286Z,4.80
2018-10-12T10:09:05.528Z,4.90
2018-10-12T10:11:33.977Z,5.00
2018-10-12T10:14:02.527Z,5.70
2018-10-12T10:16:31.073Z,5.13
2018-10-12T10:18:59.543Z,5.57
2018-10-12T10:21:28.115Z,6.10
2018-10-12T10:23:56.649Z,4.10
2018-10-12T10:26:25.174Z,4.73
2018-10-12T10:28:53.642Z,3.80
2018-10-12T10:31:22.118Z,4.40
2018-10-12T10:33:50.600Z,4.00
2018-10-12T10:36:19.192Z,3.90
2018-10-12T10:38:48.030Z,4.67
2018-10-12T10:41:16.518Z,3.77
2018-10-12T10:43:45.030Z,4.70
2018-10-12T10:46:13.539Z,4.83
2018-10-12T10:48:42.041Z,4.20
2018-10-12T10:51:10.600Z,3.70
2018-10-12T10:53:39.407Z,4.47
2018-10-12T10:56:07.931Z,4.27
2018-10-12T10:58:36.454Z,3.97
2018-10-12T11:01:04.954Z,3.43
2018-10-12T11:03:33.404Z,3.13
2018-10-12T11:06:01.912Z,3.20
2018-10-12T11:08:30.411Z,3.20
2018-10-12T11:10:58.947Z,4.17
2018-10-12T11:13:27.448Z,3.30
2018-10-12T11:15:55.899Z,3.10
2018-10-12T11:18:24.365Z,4.20
2018-10-12T11:20:52.864Z,4.13
2018-10-12T11:23:21.358Z,4.33
2018-10-12T11:25:49.854Z,3.97
2018-10-12T11:28:18.375Z,4.03
2018-10-12T11:30:46.866Z,3.60
2018-10-12T11:33:15.959Z,3.50
2018-10-12T11:35:44.449Z,3.47
2018-10-12T11:38:12.991Z,3.00
2018-10-12T11:40:41.446Z,2.70
2018-10-12T11:43:21.174Z,2.47
2018-10-12T11:45:50.670Z,1.80
2018-10-12T11:48:19.233Z,2.50
2018-10-12T11:50:47.717Z,2.90
2018-10-12T11:53:16.203Z,2.47
2018-10-12T11:55:44.715Z,2.03
2018-10-12T11:58:13.230Z,2.50
2018-10-12T12:00:41.773Z,1.87
2018-10-12T12:03:10.262Z,2.10
2018-10-12T12:05:39.471Z,2.60
2018-10-12T12:08:08.639Z,2.50
2018-10-12T12:10:37.178Z,1.90
2018-10-12T12:13:05.676Z,2.10
2018-10-12T12:15:34.365Z,3.00
2018-10-12T12:18:02.844Z,2.60
2018-10-12T12:20:31.359Z,2.43
2018-10-12T12:22:59.862Z,2.60
2018-10-12T12:25:28.384Z,2.57
2018-10-12T12:27:56.834Z,2.97
2018-10-12T12:30:25.298Z,3.00
2018-10-12T12:32:53.803Z,3.10
2018-10-12T12:35:22.533Z,2.87
2018-10-12T12:37:51.516Z,3.20
2018-10-12T12:40:20.034Z,3.90
2018-10-12T12:42:48.548Z,3.40
2018-10-12T12:45:16.991Z,3.13
2018-10-12T12:47:45.857Z,2.40
2018-10-12T12:50:14.177Z,2.47
2018-10-12T12:52:42.669Z,2.43
2018-10-12T12:55:11.171Z,3.20
2018-10-12T12:57:39.642Z,2.33
2018-10-12T13:00:08.123Z,2.97
2018-10-12T13:02:36.623Z,2.40
2018-10-12T13:05:05.186Z,3.00
2018-10-12T13:07:33.698Z,2.40
2018-10-12T13:10:02.196Z,3.07
2018-10-12T13:12:30.688Z,3.07
2018-10-12T13:14:59.155Z,2.90
2018-10-12T13:17:27.607Z,2.67
2018-10-12T13:19:56.219Z,2.97
2018-10-12T13:22:24.697Z,2.90
2018-10-12T13:24:53.269Z,2.77
2018-10-12T13:27:21.721Z,2.73
2018-10-12T13:29:50.260Z,2.70
2018-10-12T13:32:18.862Z,2.87
2018-10-12T13:34:47.357Z,2.50
2018-10-12T13:37:15.831Z,3.00
2018-10-12T13:39:44.334Z,2.53
2018-10-12T13:42:13.663Z,2.80
2018-10-12T13:44:42.134Z,2.27
2018-10-12T13:47:10.646Z,2.43
2018-10-12T13:49:39.151Z,2.60
2018-10-12T13:52:07.643Z,3.20
2018-10-12T13:54:36.188Z,3.00
2018-10-12T13:57:05.398Z,2.40
2018-10-12T13:59:33.883Z,2.87
2018-10-12T14:02:02.342Z,2.70
2018-10-12T14:04:31.010Z,2.47
2018-10-12T14:06:59.501Z,3.03
2018-10-12T14:09:28.536Z,2.57
2018-10-12T14:11:57.464Z,3.47
2018-10-12T14:14:26.113Z,2.30
2018-10-12T14:16:54.621Z,2.27
2018-10-12T14:19:23.733Z,2.50
2018-10-12T14:21:51.905Z,2.50
2018-10-12T14:24:20.373Z,2.47
2018-10-12T14:26:48.864Z,2.70
2018-10-12T14:29:17.506Z,3.17
2018-10-12T14:31:46.045Z,2.97
2018-10-12T14:34:14.552Z,2.93
2018-10-12T14:36:43.111Z,2.67
2018-10-12T14:39:11.677Z,2.83
2018-10-12T14:41:40.148Z,2.50
2018-10-12T14:44:08.704Z,3.00
2018-10-12T14:46:37.123Z,2.57
2018-10-12T14:49:05.809Z,3.10
2018-10-12T14:51:34.361Z,2.30
2018-10-12T14:54:02.866Z,3.00
2018-10-12T14:56:31.350Z,2.67
2018-10-12T14:58:59.907Z,2.57
2018-10-12T15:01:28.382Z,2.80
2018-10-12T15:03:56.898Z,2.93
2018-10-12T15:06:25.430Z,3.20
2018-10-12T15:08:53.918Z,3.77
2018-10-12T15:11:22.397Z,2.93
2018-10-12T15:13:50.857Z,3.10
2018-10-12T15:16:20.473Z,3.27
2018-10-12T15:18:48.958Z,2.63
2018-10-12T15:21:17.633Z,3.37
2018-10-12T15:23:45.930Z,4.37
2018-10-12T15:26:14.414Z,2.77
2018-10-12T15:28:42.898Z,3.50
2018-10-12T15:31:11.374Z,3.27
2018-10-12T15:33:39.859Z,3.30
2018-10-12T15:36:08.442Z,3.23
2018-10-12T15:38:36.969Z,3.10
2018-10-12T15:41:05.435Z,3.40
2018-10-12T15:43:33.913Z,2.90
2018-10-12T15:46:03.257Z,2.90
2018-10-12T15:48:31.723Z,3.10
2018-10-12T15:51:00.286Z,3.00
2018-10-12T15:53:28.745Z,2.77
2018-10-12T15:55:57.253Z,3.20
2018-10-12T15:58:25.726Z,3.20
2018-10-12T16:00:54.279Z,2.73
2018-10-12T16:03:22.827Z,4.10
2018-10-12T16:05:51.335Z,3.87
2018-10-12T16:08:19.880Z,3.50
2018-10-12T16:10:48.525Z,3.73
2018-10-12T16:13:17.518Z,2.53
2018-10-12T16:15:46.007Z,2.97
2018-10-12T16:18:14.492Z,3.17
2018-10-12T16:20:43.011Z,3.50
2018-10-12T16:23:11.502Z,4.00
2018-10-12T16:25:53.836Z,4.70
2018-10-12T16:28:22.714Z,3.20
2018-10-12T16:30:52.058Z,3.10
2018-10-12T16:33:21.275Z,3.83
2018-10-12T16:35:50.593Z,4.27
2018-10-12T16:38:19.039Z,3.40
2018-10-12T16:40:47.522Z,5.50
2018-10-12T16:43:16.562Z,3.60
2018-10-12T16:45:46.194Z,4.60
2018-10-12T16:48:14.727Z,3.87
2018-10-12T16:50:43.234Z,4.17
2018-10-12T16:53:13.459Z,3.97
2018-10-12T16:55:41.978Z,4.33
2018-10-12T16:58:11.720Z,3.90
2018-10-12T17:00:40.299Z,4.70
2018-10-12T17:03:08.830Z,4.37
2018-10-12T17:05:37.298Z,3.97
2018-10-12T17:08:05.880Z,4.80
2018-10-12T17:10:35.086Z,4.10
2018-10-12T17:13:03.573Z,4.00
2018-10-12T17:15:32.064Z,3.20
2018-10-12T17:18:01.331Z,3.53
2018-10-12T17:20:29.875Z,3.40
2018-10-12T17:22:58.412Z,4.03
2018-10-12T17:25:26.894Z,5.43
2018-10-12T17:27:55.376Z,4.80
2018-10-12T17:30:23.868Z,5.40
2018-10-12T17:32:52.315Z,6.27
2018-10-12T17:35:20.743Z,4.87
2018-10-12T17:37:49.195Z,4.90
2018-10-12T17:40:17.677Z,4.67
2018-10-12T17:42:46.145Z,4.13
2018-10-12T17:45:14.562Z,6.47
2018-10-12T17:47:43.034Z,5.00
2018-10-12T17:50:11.496Z,5.70
2018-10-12T17:52:39.984Z,5.77
2018-10-12T17:55:08.521Z,5.17
2018-10-12T17:57:37.014Z,5.10
2018-10-12T18:00:05.767Z,6.10
2018-10-12T18:02:34.231Z,5.37
2018-10-12T18:05:02.665Z,4.90
2018-10-12T18:07:31.133Z,5.20
2018-10-12T18:09:59.596Z,6.50
2018-10-12T18:12:28.088Z,6.90
2018-10-12T18:14:56.535Z,5.63
2018-10-12T18:17:24.984Z,6.90
2018-10-12T18:19:53.526Z,6.20
2018-10-12T18:22:21.922Z,4.80
2018-10-12T18:24:50.466Z,5.70
2018-10-12T18:27:19.958Z,5.70
2018-10-12T18:29:48.429Z,5.17
2018-10-12T18:32:16.924Z,5.10
2018-10-12T18:34:45.399Z,6.10
2018-10-12T18:37:13.853Z,5.97
2018-10-12T18:39:42.509Z,4.67
2018-10-12T18:42:10.997Z,5.10
2018-10-12T18:44:39.445Z,5.37
2018-10-12T18:47:08.074Z,5.70
2018-10-12T18:49:36.515Z,5.63
2018-10-12T18:52:04.994Z,6.13
2018-10-12T18:54:33.490Z,5.93
2018-10-12T18:57:01.960Z,6.17
2018-10-12T18:59:30.441Z,7.07
2018-10-12T19:01:59.027Z,6.50
2018-10-12T19:04:27.677Z,6.57
2018-10-12T19:06:56.092Z,5.43
2018-10-12T19:09:24.673Z,6.00
2018-10-12T19:11:53.103Z,7.90
2018-10-12T19:14:21.608Z,7.47
2018-10-12T19:16:50.058Z,6.27
2018-10-12T19:20:21.809Z,5.83
2018-10-12T19:22:50.342Z,7.07
2018-10-12T19:25:18.830Z,6.53
2018-10-12T19:27:47.278Z,6.60
2018-10-12T19:30:15.727Z,5.43
2018-10-12T19:32:44.197Z,5.33
2018-10-12T19:35:12.739Z,5.57
2018-10-12T19:37:41.187Z,5.90
2018-10-12T19:40:09.704Z,5.73
2018-10-12T19:42:38.171Z,5.40
2018-10-12T19:45:06.753Z,6.67
2018-10-12T19:47:35.227Z,5.73
2018-10-12T19:50:03.730Z,5.93
2018-10-12T19:52:32.212Z,5.10
2018-10-12T19:55:00.716Z,5.20
2018-10-12T19:57:29.573Z,5.43
2018-10-12T19:59:58.013Z,6.23
2018-10-12T20:02:26.491Z,6.20
2018-10-12T20:04:54.956Z,5.00
2018-10-12T20:07:23.448Z,5.60
2018-10-12T20:09:52.071Z,8.40
2018-10-12T20:12:20.515Z,5.50
2018-10-12T20:14:48.975Z,6.77
2018-10-12T20:17:17.442Z,6.23
2018-10-12T20:19:45.926Z,5.87
2018-10-12T20:22:14.423Z,5.90
2018-10-12T20:24:42.888Z,6.20
2018-10-12T20:27:11.354Z,6.40
2018-10-12T20:29:39.835Z,5.80
2018-10-12T20:32:08.681Z,6.33
2018-10-12T20:34:37.149Z,6.80
2018-10-12T20:37:06.327Z,6.13
2018-10-12T20:39:34.816Z,5.73
2018-10-12T20:42:03.227Z,5.70
2018-10-12T20:44:31.694Z,5.53
2018-10-12T20:47:00.178Z,5.30
2018-10-12T20:49:28.592Z,6.07
2018-10-12T20:51:57.080Z,5.63
2018-10-12T20:54:25.506Z,5.43
2018-10-12T20:56:54.039Z,6.13
2018-10-12T20:59:23.091Z,5.20
2018-10-12T21:01:51.741Z,5.40
2018-10-12T21:04:20.293Z,5.07
2018-10-12T21:06:48.835Z,5.30
2018-10-12T21:09:17.432Z,5.73
2018-10-12T21:11:46.021Z,6.50
2018-10-12T21:14:14.509Z,6.00
2018-10-12T21:16:42.996Z,5.33
2018-10-12T21:19:11.570Z,5.37
2018-10-12T21:21:40.137Z,5.93
2018-10-12T21:24:08.620Z,5.23
2018-10-12T21:26:37.055Z,5.03
2018-10-12T21:29:05.663Z,5.70
2018-10-12T21:31:34.247Z,5.40
2018-10-12T21:34:02.719Z,5.00
2018-10-12T21:36:31.177Z,5.90
2018-10-12T21:38:59.616Z,5.77
2018-10-12T21:41:28.221Z,4.90
2018-10-12T21:43:56.661Z,6.00
2018-10-12T21:46:25.144Z,5.30
2018-10-12T21:48:53.578Z,5.00
2018-10-12T21:51:22.032Z,7.07
2018-10-12T21:53:50.485Z,7.00
2018-10-12T21:56:19.143Z,5.53
2018-10-12T21:58:47.640Z,6.23
2018-10-12T22:01:16.107Z,6.00
2018-10-12T22:03:44.561Z,5.27
2018-10-12T22:06:13.016Z,5.47
2018-10-12T22:08:46.555Z,6.70
2018-10-12T22:11:15.128Z,5.33
2018-10-12T22:13:43.626Z,5.90
2018-10-12T22:16:12.030Z,5.60
2018-10-12T22:18:40.516Z,5.83
2018-10-12T22:21:08.969Z,5.70
2018-10-12T22:23:37.438Z,5.00
2018-10-12T22:26:06.024Z,5.57
2018-10-12T22:28:34.514Z,6.00
2018-10-12T22:31:02.995Z,4.97
2018-10-12T22:33:31.465Z,5.20
2018-10-12T22:35:59.899Z,5.63
2018-10-12T22:38:28.414Z,7.10
2018-10-12T22:40:56.875Z,5.10
2018-10-12T22:43:25.342Z,5.90
2018-10-12T22:45:53.843Z,5.30
2018-10-12T22:48:22.735Z,5.17
2018-10-12T22:50:51.174Z,5.60
2018-10-12T22:53:19.666Z,5.30
2018-10-12T22:55:48.217Z,5.80
2018-10-12T22:58:16.723Z,4.93
2018-10-12T23:00:45.154Z,5.70
2018-10-12T23:03:13.855Z,4.70
2018-10-12T23:05:42.371Z,6.20
2018-10-12T23:08:10.836Z,7.17
2018-10-12T23:10:39.289Z,6.50
2018-10-12T23:13:07.746Z,5.57
2018-10-12T23:15:36.186Z,6.17
2018-10-12T23:18:04.656Z,6.43
2018-10-12T23:20:33.113Z,5.60
2018-10-12T23:23:01.597Z,5.60
2018-10-12T23:25:30.028Z,6.70
2018-10-12T23:27:58.471Z,5.33
2018-10-12T23:30:26.930Z,6.83
2018-10-12T23:33:05.256Z,6.47
2018-10-12T23:35:33.713Z,6.87
2018-10-12T23:38:02.202Z,5.67
2018-10-12T23:40:30.674Z,5.83
2018-10-12T23:42:59.139Z,6.57
2018-10-12T23:45:27.580Z,6.00
2018-10-12T23:47:55.992Z,6.37
2018-10-12T23:50:24.463Z,6.30
2018-10-12T23:52:52.923Z,6.47
2018-10-12T23:55:21.366Z,5.23
2018-10-12T23:57:49.818Z,6.50
